sensor_id;sensor_type;location;lat;lon;timestamp;P1;durP1;ratioP1;P2;durP2;ratioP2
19291;SDS011;9779;51.756;7.450;2023-04-21T00:01:55;20.87;;;16.83;;
19291;SDS011;9779;51.756;7.450;2023-04-21T00:04:23;20.47;;;17.93;;
19291;SDS011;9779;51.756;7.450;2023-04-21T00:06:48;19.23;;;17.17;;
19291;SDS011;9779;51.756;7.450;2023-04-21T00:09:14;22.70;;;18.23;;
19291;SDS011;9779;51.756;7.450;2023-04-21T00:11:40;19.00;;;17.03;;
19291;SDS011;9779;51.756;7.450;2023-04-21T00:14:06;20.13;;;17.47;;
19291;SDS011;9779;51.756;7.450;2023-04-21T00:16:32;22.73;;;17.27;;
19291;SDS011;9779;51.756;7.450;2023-04-21T00:18:57;21.97;;;17.43;;
19291;SDS011;9779;51.756;7.450;2023-04-21T00:21:23;23.10;;;19.23;;
19291;SDS011;9779;51.756;7.450;2023-04-21T00:23:49;20.67;;;17.93;;
19291;SDS011;9779;51.756;7.450;2023-04-21T00:26:14;21.70;;;18.87;;
19291;SDS011;9779;51.756;7.450;2023-04-21T00:28:40;22.30;;;17.90;;
19291;SDS011;9779;51.756;7.450;2023-04-21T00:31:05;20.40;;;18.33;;
19291;SDS011;9779;51.756;7.450;2023-04-21T00:33:31;20.13;;;18.00;;
19291;SDS011;9779;51.756;7.450;2023-04-21T00:35:56;21.53;;;17.80;;
19291;SDS011;9779;51.756;7.450;2023-04-21T00:38:23;19.13;;;17.13;;
19291;SDS011;9779;51.756;7.450;2023-04-21T00:40:48;21.43;;;18.77;;
19291;SDS011;9779;51.756;7.450;2023-04-21T00:43:14;21.17;;;17.43;;
19291;SDS011;9779;51.756;7.450;2023-04-21T00:45:40;21.77;;;19.00;;
19291;SDS011;9779;51.756;7.450;2023-04-21T00:48:05;23.93;;;19.03;;
19291;SDS011;9779;51.756;7.450;2023-04-21T00:50:31;19.33;;;16.90;;
19291;SDS011;9779;51.756;7.450;2023-04-21T00:52:57;22.00;;;18.70;;
19291;SDS011;9779;51.756;7.450;2023-04-21T00:55:23;19.50;;;16.47;;
19291;SDS011;9779;51.756;7.450;2023-04-21T00:57:49;22.20;;;18.63;;
19291;SDS011;9779;51.756;7.450;2023-04-21T01:00:16;25.30;;;19.23;;
19291;SDS011;9779;51.756;7.450;2023-04-21T01:02:42;24.63;;;20.07;;
19291;SDS011;9779;51.756;7.450;2023-04-21T01:05:09;22.17;;;17.30;;
19291;SDS011;9779;51.756;7.450;2023-04-21T01:07:36;24.57;;;19.90;;
19291;SDS011;9779;51.756;7.450;2023-04-21T01:10:02;23.13;;;19.40;;
19291;SDS011;9779;51.756;7.450;2023-04-21T01:12:28;23.23;;;20.07;;
19291;SDS011;9779;51.756;7.450;2023-04-21T01:14:53;22.37;;;19.43;;
19291;SDS011;9779;51.756;7.450;2023-04-21T01:17:19;21.20;;;18.87;;
19291;SDS011;9779;51.756;7.450;2023-04-21T01:19:45;22.17;;;18.93;;
19291;SDS011;9779;51.756;7.450;2023-04-21T01:22:11;22.13;;;19.73;;
19291;SDS011;9779;51.756;7.450;2023-04-21T01:24:39;21.53;;;18.73;;
19291;SDS011;9779;51.756;7.450;2023-04-21T01:27:07;23.87;;;20.03;;
19291;SDS011;9779;51.756;7.450;2023-04-21T01:29:38;20.40;;;18.17;;
19291;SDS011;9779;51.756;7.450;2023-04-21T01:32:15;21.40;;;19.10;;
19291;SDS011;9779;51.756;7.450;2023-04-21T01:34:42;21.67;;;19.37;;
19291;SDS011;9779;51.756;7.450;2023-04-21T01:37:13;22.20;;;19.77;;
19291;SDS011;9779;51.756;7.450;2023-04-21T01:39:41;27.10;;;20.63;;
19291;SDS011;9779;51.756;7.450;2023-04-21T01:42:09;24.60;;;20.67;;
19291;SDS011;9779;51.756;7.450;2023-04-21T01:44:35;22.20;;;19.47;;
19291;SDS011;9779;51.756;7.450;2023-04-21T01:47:01;24.20;;;19.13;;
19291;SDS011;9779;51.756;7.450;2023-04-21T01:49:27;27.07;;;19.70;;
19291;SDS011;9779;51.756;7.450;2023-04-21T01:51:53;21.50;;;19.30;;
19291;SDS011;9779;51.756;7.450;2023-04-21T01:54:18;33.67;;;21.07;;
19291;SDS011;9779;51.756;7.450;2023-04-21T01:56:44;23.97;;;20.33;;
19291;SDS011;9779;51.756;7.450;2023-04-21T01:59:09;26.17;;;20.97;;
19291;SDS011;9779;51.756;7.450;2023-04-21T02:01:35;28.10;;;21.73;;
19291;SDS011;9779;51.756;7.450;2023-04-21T02:04:03;26.60;;;22.17;;
19291;SDS011;9779;51.756;7.450;2023-04-21T02:06:29;24.50;;;20.53;;
19291;SDS011;9779;51.756;7.450;2023-04-21T02:08:55;24.80;;;20.77;;
19291;SDS011;9779;51.756;7.450;2023-04-21T02:11:22;23.10;;;19.63;;
19291;SDS011;9779;51.756;7.450;2023-04-21T02:13:49;27.43;;;20.27;;
19291;SDS011;9779;51.756;7.450;2023-04-21T02:16:16;25.33;;;20.13;;
19291;SDS011;9779;51.756;7.450;2023-04-21T02:18:42;25.13;;;20.93;;
19291;SDS011;9779;51.756;7.450;2023-04-21T02:21:08;23.90;;;20.93;;
19291;SDS011;9779;51.756;7.450;2023-04-21T02:23:34;23.67;;;21.00;;
19291;SDS011;9779;51.756;7.450;2023-04-21T02:25:59;21.00;;;18.63;;
19291;SDS011;9779;51.756;7.450;2023-04-21T02:28:25;23.33;;;19.47;;
19291;SDS011;9779;51.756;7.450;2023-04-21T02:30:50;26.90;;;22.07;;
19291;SDS011;9779;51.756;7.450;2023-04-21T02:33:16;23.27;;;20.27;;
19291;SDS011;9779;51.756;7.450;2023-04-21T02:35:41;22.87;;;20.47;;
19291;SDS011;9779;51.756;7.450;2023-04-21T02:38:07;23.03;;;19.90;;
19291;SDS011;9779;51.756;7.450;2023-04-21T02:40:32;22.13;;;19.77;;
19291;SDS011;9779;51.756;7.450;2023-04-21T02:42:58;25.07;;;21.40;;
19291;SDS011;9779;51.756;7.450;2023-04-21T02:45:24;23.63;;;19.97;;
19291;SDS011;9779;51.756;7.450;2023-04-21T02:47:50;24.67;;;21.10;;
19291;SDS011;9779;51.756;7.450;2023-04-21T02:50:15;28.87;;;22.70;;
19291;SDS011;9779;51.756;7.450;2023-04-21T02:52:41;25.90;;;21.53;;
19291;SDS011;9779;51.756;7.450;2023-04-21T02:55:06;27.57;;;20.07;;
19291;SDS011;9779;51.756;7.450;2023-04-21T02:57:32;25.63;;;20.17;;
19291;SDS011;9779;51.756;7.450;2023-04-21T02:59:58;27.43;;;22.40;;
19291;SDS011;9779;51.756;7.450;2023-04-21T03:02:23;27.97;;;22.63;;
19291;SDS011;9779;51.756;7.450;2023-04-21T03:04:49;28.37;;;22.67;;
19291;SDS011;9779;51.756;7.450;2023-04-21T03:07:15;27.00;;;22.57;;
19291;SDS011;9779;51.756;7.450;2023-04-21T03:09:40;25.77;;;21.43;;
19291;SDS011;9779;51.756;7.450;2023-04-21T03:12:06;23.57;;;19.93;;
19291;SDS011;9779;51.756;7.450;2023-04-21T03:14:32;29.73;;;22.47;;
19291;SDS011;9779;51.756;7.450;2023-04-21T03:16:57;25.97;;;21.40;;
19291;SDS011;9779;51.756;7.450;2023-04-21T03:19:23;30.07;;;22.10;;
19291;SDS011;9779;51.756;7.450;2023-04-21T03:21:48;25.13;;;22.00;;
19291;SDS011;9779;51.756;7.450;2023-04-21T03:24:14;27.17;;;22.93;;
19291;SDS011;9779;51.756;7.450;2023-04-21T03:26:39;26.40;;;22.20;;
19291;SDS011;9779;51.756;7.450;2023-04-21T03:29:05;28.90;;;21.93;;
19291;SDS011;9779;51.756;7.450;2023-04-21T03:31:31;25.07;;;21.77;;
19291;SDS011;9779;51.756;7.450;2023-04-21T03:33:57;25.27;;;21.57;;
19291;SDS011;9779;51.756;7.450;2023-04-21T03:36:23;25.87;;;22.50;;
19291;SDS011;9779;51.756;7.450;2023-04-21T03:38:48;28.47;;;21.70;;
19291;SDS011;9779;51.756;7.450;2023-04-21T03:41:14;25.93;;;22.33;;
19291;SDS011;9779;51.756;7.450;2023-04-21T03:43:39;23.07;;;20.43;;
19291;SDS011;9779;51.756;7.450;2023-04-21T03:46:05;26.83;;;22.30;;
19291;SDS011;9779;51.756;7.450;2023-04-21T03:48:30;23.80;;;20.80;;
19291;SDS011;9779;51.756;7.450;2023-04-21T03:50:56;26.53;;;23.07;;
19291;SDS011;9779;51.756;7.450;2023-04-21T03:53:21;27.90;;;21.60;;
19291;SDS011;9779;51.756;7.450;2023-04-21T03:55:48;28.33;;;21.30;;
19291;SDS011;9779;51.756;7.450;2023-04-21T03:58:15;25.33;;;20.77;;
19291;SDS011;9779;51.756;7.450;2023-04-21T04:00:41;25.17;;;20.57;;
19291;SDS011;9779;51.756;7.450;2023-04-21T04:03:06;27.27;;;20.73;;
19291;SDS011;9779;51.756;7.450;2023-04-21T04:05:33;25.67;;;21.60;;
19291;SDS011;9779;51.756;7.450;2023-04-21T04:07:59;27.00;;;20.93;;
19291;SDS011;9779;51.756;7.450;2023-04-21T04:10:25;33.90;;;22.23;;
19291;SDS011;9779;51.756;7.450;2023-04-21T04:12:51;27.77;;;20.90;;
19291;SDS011;9779;51.756;7.450;2023-04-21T04:15:16;24.27;;;21.10;;
19291;SDS011;9779;51.756;7.450;2023-04-21T04:17:42;26.13;;;21.83;;
19291;SDS011;9779;51.756;7.450;2023-04-21T04:20:08;24.27;;;21.70;;
19291;SDS011;9779;51.756;7.450;2023-04-21T04:22:33;23.93;;;21.40;;
19291;SDS011;9779;51.756;7.450;2023-04-21T04:24:59;30.67;;;21.60;;
19291;SDS011;9779;51.756;7.450;2023-04-21T04:27:25;34.07;;;21.27;;
19291;SDS011;9779;51.756;7.450;2023-04-21T04:29:53;26.93;;;22.60;;
19291;SDS011;9779;51.756;7.450;2023-04-21T04:32:19;23.23;;;20.80;;
19291;SDS011;9779;51.756;7.450;2023-04-21T04:34:45;24.03;;;20.63;;
19291;SDS011;9779;51.756;7.450;2023-04-21T04:37:11;26.10;;;22.13;;
19291;SDS011;9779;51.756;7.450;2023-04-21T04:39:37;28.87;;;22.97;;
19291;SDS011;9779;51.756;7.450;2023-04-21T04:42:05;31.20;;;23.57;;
19291;SDS011;9779;51.756;7.450;2023-04-21T04:44:33;26.33;;;22.63;;
19291;SDS011;9779;51.756;7.450;2023-04-21T04:46:58;26.07;;;20.93;;
19291;SDS011;9779;51.756;7.450;2023-04-21T04:49:24;23.87;;;21.37;;
19291;SDS011;9779;51.756;7.450;2023-04-21T04:51:49;30.10;;;21.80;;
19291;SDS011;9779;51.756;7.450;2023-04-21T04:54:15;26.33;;;21.83;;
19291;SDS011;9779;51.756;7.450;2023-04-21T04:56:41;28.73;;;23.33;;
19291;SDS011;9779;51.756;7.450;2023-04-21T04:59:06;29.63;;;23.53;;
19291;SDS011;9779;51.756;7.450;2023-04-21T05:01:32;25.90;;;22.67;;
19291;SDS011;9779;51.756;7.450;2023-04-21T05:03:57;26.80;;;22.70;;
19291;SDS011;9779;51.756;7.450;2023-04-21T05:06:23;24.30;;;21.77;;
19291;SDS011;9779;51.756;7.450;2023-04-21T05:08:50;24.37;;;21.77;;
19291;SDS011;9779;51.756;7.450;2023-04-21T05:11:15;28.57;;;22.33;;
19291;SDS011;9779;51.756;7.450;2023-04-21T05:13:41;25.10;;;22.00;;
19291;SDS011;9779;51.756;7.450;2023-04-21T05:16:06;23.53;;;20.97;;
19291;SDS011;9779;51.756;7.450;2023-04-21T05:18:33;28.67;;;21.47;;
19291;SDS011;9779;51.756;7.450;2023-04-21T05:20:59;29.57;;;22.37;;
19291;SDS011;9779;51.756;7.450;2023-04-21T05:23:25;23.47;;;20.97;;
19291;SDS011;9779;51.756;7.450;2023-04-21T05:25:50;23.30;;;20.83;;
19291;SDS011;9779;51.756;7.450;2023-04-21T05:28:16;28.83;;;21.80;;
19291;SDS011;9779;51.756;7.450;2023-04-21T05:30:41;29.47;;;22.27;;
19291;SDS011;9779;51.756;7.450;2023-04-21T05:33:07;24.90;;;22.30;;
19291;SDS011;9779;51.756;7.450;2023-04-21T05:35:33;23.00;;;20.43;;
19291;SDS011;9779;51.756;7.450;2023-04-21T05:37:59;25.73;;;20.90;;
19291;SDS011;9779;51.756;7.450;2023-04-21T05:40:24;27.00;;;22.23;;
19291;SDS011;9779;51.756;7.450;2023-04-21T05:42:50;23.23;;;20.83;;
19291;SDS011;9779;51.756;7.450;2023-04-21T05:45:15;29.93;;;21.63;;
19291;SDS011;9779;51.756;7.450;2023-04-21T05:47:41;28.37;;;21.90;;
19291;SDS011;9779;51.756;7.450;2023-04-21T05:50:07;28.60;;;21.67;;
19291;SDS011;9779;51.756;7.450;2023-04-21T05:52:32;23.77;;;18.73;;
19291;SDS011;9779;51.756;7.450;2023-04-21T05:54:59;28.73;;;22.53;;
19291;SDS011;9779;51.756;7.450;2023-04-21T05:57:25;28.47;;;22.70;;
19291;SDS011;9779;51.756;7.450;2023-04-21T05:59:50;31.27;;;23.43;;
19291;SDS011;9779;51.756;7.450;2023-04-21T06:02:16;32.13;;;22.10;;
19291;SDS011;9779;51.756;7.450;2023-04-21T06:04:41;29.10;;;22.43;;
19291;SDS011;9779;51.756;7.450;2023-04-21T06:07:07;27.17;;;22.63;;
19291;SDS011;9779;51.756;7.450;2023-04-21T06:09:34;36.27;;;26.40;;
19291;SDS011;9779;51.756;7.450;2023-04-21T06:12:01;41.57;;;29.73;;
19291;SDS011;9779;51.756;7.450;2023-04-21T06:14:27;43.17;;;31.13;;
19291;SDS011;9779;51.756;7.450;2023-04-21T06:16:52;38.10;;;28.03;;
19291;SDS011;9779;51.756;7.450;2023-04-21T06:19:18;27.90;;;23.47;;
19291;SDS011;9779;51.756;7.450;2023-04-21T06:21:43;29.33;;;23.10;;
19291;SDS011;9779;51.756;7.450;2023-04-21T06:24:09;28.20;;;22.10;;
19291;SDS011;9779;51.756;7.450;2023-04-21T06:26:34;29.27;;;21.10;;
19291;SDS011;9779;51.756;7.450;2023-04-21T06:29:00;32.50;;;22.83;;
19291;SDS011;9779;51.756;7.450;2023-04-21T06:31:25;26.77;;;21.53;;
19291;SDS011;9779;51.756;7.450;2023-04-21T06:33:51;27.27;;;21.50;;
19291;SDS011;9779;51.756;7.450;2023-04-21T06:36:17;26.87;;;20.37;;
19291;SDS011;9779;51.756;7.450;2023-04-21T06:38:42;30.63;;;20.33;;
19291;SDS011;9779;51.756;7.450;2023-04-21T06:41:09;23.00;;;20.00;;
19291;SDS011;9779;51.756;7.450;2023-04-21T06:43:34;26.47;;;20.73;;
19291;SDS011;9779;51.756;7.450;2023-04-21T06:46:00;23.70;;;19.43;;
19291;SDS011;9779;51.756;7.450;2023-04-21T06:48:26;24.60;;;19.53;;
19291;SDS011;9779;51.756;7.450;2023-04-21T06:50:52;23.00;;;19.90;;
19291;SDS011;9779;51.756;7.450;2023-04-21T06:53:17;24.87;;;19.30;;
19291;SDS011;9779;51.756;7.450;2023-04-21T06:55:43;25.13;;;18.83;;
19291;SDS011;9779;51.756;7.450;2023-04-21T06:58:09;23.90;;;18.43;;
19291;SDS011;9779;51.756;7.450;2023-04-21T07:00:35;25.93;;;19.73;;
19291;SDS011;9779;51.756;7.450;2023-04-21T07:03:00;22.50;;;20.10;;
19291;SDS011;9779;51.756;7.450;2023-04-21T07:05:26;29.10;;;20.63;;
19291;SDS011;9779;51.756;7.450;2023-04-21T07:07:52;29.73;;;21.03;;
19291;SDS011;9779;51.756;7.450;2023-04-21T07:10:20;27.03;;;19.87;;
19291;SDS011;9779;51.756;7.450;2023-04-21T07:12:46;24.97;;;19.37;;
19291;SDS011;9779;51.756;7.450;2023-04-21T07:15:12;21.50;;;18.93;;
19291;SDS011;9779;51.756;7.450;2023-04-21T07:17:37;21.17;;;18.50;;
19291;SDS011;9779;51.756;7.450;2023-04-21T07:20:03;21.90;;;18.93;;
19291;SDS011;9779;51.756;7.450;2023-04-21T07:22:28;20.10;;;18.20;;
19291;SDS011;9779;51.756;7.450;2023-04-21T07:24:54;24.33;;;19.30;;
19291;SDS011;9779;51.756;7.450;2023-04-21T07:27:20;26.13;;;19.73;;
19291;SDS011;9779;51.756;7.450;2023-04-21T07:29:45;25.60;;;19.63;;
19291;SDS011;9779;51.756;7.450;2023-04-21T07:32:11;28.50;;;19.40;;
19291;SDS011;9779;51.756;7.450;2023-04-21T07:34:36;22.97;;;18.37;;
19291;SDS011;9779;51.756;7.450;2023-04-21T07:37:02;23.17;;;19.03;;
19291;SDS011;9779;51.756;7.450;2023-04-21T07:39:27;24.97;;;18.43;;
19291;SDS011;9779;51.756;7.450;2023-04-21T07:41:53;24.97;;;19.30;;
19291;SDS011;9779;51.756;7.450;2023-04-21T07:44:19;23.57;;;19.17;;
19291;SDS011;9779;51.756;7.450;2023-04-21T07:46:45;28.07;;;19.57;;
19291;SDS011;9779;51.756;7.450;2023-04-21T07:49:10;24.93;;;19.10;;
19291;SDS011;9779;51.756;7.450;2023-04-21T07:51:36;26.03;;;18.87;;
19291;SDS011;9779;51.756;7.450;2023-04-21T07:54:02;26.80;;;19.53;;
19291;SDS011;9779;51.756;7.450;2023-04-21T07:56:27;22.67;;;19.07;;
19291;SDS011;9779;51.756;7.450;2023-04-21T07:58:53;23.03;;;19.37;;
19291;SDS011;9779;51.756;7.450;2023-04-21T08:01:18;22.03;;;19.23;;
19291;SDS011;9779;51.756;7.450;2023-04-21T08:03:44;25.13;;;18.10;;
19291;SDS011;9779;51.756;7.450;2023-04-21T08:06:10;24.53;;;18.70;;
19291;SDS011;9779;51.756;7.450;2023-04-21T08:08:35;18.17;;;13.13;;
19291;SDS011;9779;51.756;7.450;2023-04-21T08:11:01;25.13;;;18.17;;
19291;SDS011;9779;51.756;7.450;2023-04-21T08:13:27;24.10;;;19.17;;
19291;SDS011;9779;51.756;7.450;2023-04-21T08:15:53;25.30;;;18.83;;
19291;SDS011;9779;51.756;7.450;2023-04-21T08:18:19;22.07;;;17.30;;
19291;SDS011;9779;51.756;7.450;2023-04-21T08:20:45;20.50;;;17.80;;
19291;SDS011;9779;51.756;7.450;2023-04-21T08:23:14;26.23;;;17.90;;
19291;SDS011;9779;51.756;7.450;2023-04-21T08:25:40;19.03;;;16.97;;
19291;SDS011;9779;51.756;7.450;2023-04-21T08:28:05;22.10;;;17.77;;
19291;SDS011;9779;51.756;7.450;2023-04-21T08:30:31;21.17;;;17.50;;
19291;SDS011;9779;51.756;7.450;2023-04-21T08:32:57;19.73;;;16.50;;
19291;SDS011;9779;51.756;7.450;2023-04-21T08:35:22;19.20;;;16.97;;
19291;SDS011;9779;51.756;7.450;2023-04-21T08:37:48;27.97;;;17.27;;
19291;SDS011;9779;51.756;7.450;2023-04-21T08:40:14;24.33;;;17.70;;
19291;SDS011;9779;51.756;7.450;2023-04-21T08:42:41;22.67;;;17.10;;
19291;SDS011;9779;51.756;7.450;2023-04-21T08:45:06;22.47;;;16.37;;
19291;SDS011;9779;51.756;7.450;2023-04-21T08:47:33;24.83;;;17.50;;
19291;SDS011;9779;51.756;7.450;2023-04-21T08:50:02;18.60;;;15.97;;
19291;SDS011;9779;51.756;7.450;2023-04-21T08:52:27;19.00;;;17.00;;
19291;SDS011;9779;51.756;7.450;2023-04-21T08:54:53;22.53;;;18.37;;
19291;SDS011;9779;51.756;7.450;2023-04-21T08:57:20;19.93;;;16.63;;
19291;SDS011;9779;51.756;7.450;2023-04-21T08:59:46;21.27;;;16.97;;
19291;SDS011;9779;51.756;7.450;2023-04-21T09:02:14;19.43;;;16.60;;
19291;SDS011;9779;51.756;7.450;2023-04-21T09:04:42;32.90;;;18.20;;
19291;SDS011;9779;51.756;7.450;2023-04-21T09:09:59;25.10;;;16.77;;
19291;SDS011;9779;51.756;7.450;2023-04-21T09:12:25;22.50;;;17.97;;
19291;SDS011;9779;51.756;7.450;2023-04-21T09:14:52;21.27;;;16.80;;
19291;SDS011;9779;51.756;7.450;2023-04-21T09:17:19;22.83;;;18.23;;
19291;SDS011;9779;51.756;7.450;2023-04-21T09:19:46;20.10;;;17.77;;
19291;SDS011;9779;51.756;7.450;2023-04-21T09:22:15;21.03;;;17.10;;
19291;SDS011;9779;51.756;7.450;2023-04-21T09:24:45;25.73;;;19.17;;
19291;SDS011;9779;51.756;7.450;2023-04-21T09:27:13;24.07;;;16.47;;
19291;SDS011;9779;51.756;7.450;2023-04-21T09:29:44;20.07;;;16.87;;
19291;SDS011;9779;51.756;7.450;2023-04-21T09:32:15;20.83;;;17.60;;
19291;SDS011;9779;51.756;7.450;2023-04-21T09:34:44;22.60;;;16.73;;
19291;SDS011;9779;51.756;7.450;2023-04-21T09:37:11;27.37;;;17.83;;
19291;SDS011;9779;51.756;7.450;2023-04-21T09:39:38;17.93;;;15.77;;
19291;SDS011;9779;51.756;7.450;2023-04-21T09:42:09;20.03;;;16.57;;
19291;SDS011;9779;51.756;7.450;2023-04-21T09:44:35;19.33;;;17.00;;
19291;SDS011;9779;51.756;7.450;2023-04-21T09:47:03;21.60;;;17.97;;
19291;SDS011;9779;51.756;7.450;2023-04-21T09:49:30;27.50;;;19.40;;
19291;SDS011;9779;51.756;7.450;2023-04-21T09:51:59;20.87;;;17.90;;
19291;SDS011;9779;51.756;7.450;2023-04-21T09:54:32;22.60;;;16.47;;
19291;SDS011;9779;51.756;7.450;2023-04-21T09:57:01;20.73;;;18.20;;
19291;SDS011;9779;51.756;7.450;2023-04-21T09:59:29;22.73;;;16.07;;
19291;SDS011;9779;51.756;7.450;2023-04-21T10:01:58;19.60;;;17.00;;
19291;SDS011;9779;51.756;7.450;2023-04-21T10:04:25;20.43;;;17.20;;
19291;SDS011;9779;51.756;7.450;2023-04-21T10:06:52;20.77;;;16.50;;
19291;SDS011;9779;51.756;7.450;2023-04-21T10:09:20;19.50;;;17.37;;
19291;SDS011;9779;51.756;7.450;2023-04-21T10:11:48;27.17;;;18.50;;
19291;SDS011;9779;51.756;7.450;2023-04-21T10:14:13;24.63;;;17.83;;
19291;SDS011;9779;51.756;7.450;2023-04-21T10:16:39;21.67;;;17.20;;
19291;SDS011;9779;51.756;7.450;2023-04-21T10:19:22;25.23;;;18.70;;
19291;SDS011;9779;51.756;7.450;2023-04-21T10:21:54;27.50;;;17.87;;
19291;SDS011;9779;51.756;7.450;2023-04-21T10:24:21;24.97;;;17.73;;
19291;SDS011;9779;51.756;7.450;2023-04-21T10:26:48;25.20;;;17.83;;
19291;SDS011;9779;51.756;7.450;2023-04-21T10:29:15;24.03;;;17.73;;
19291;SDS011;9779;51.756;7.450;2023-04-21T10:31:52;20.30;;;17.73;;
19291;SDS011;9779;51.756;7.450;2023-04-21T10:34:19;20.70;;;17.80;;
19291;SDS011;9779;51.756;7.450;2023-04-21T10:41:50;21.07;;;18.17;;
19291;SDS011;9779;51.756;7.450;2023-04-21T10:44:18;23.83;;;18.00;;
19291;SDS011;9779;51.756;7.450;2023-04-21T10:46:47;21.17;;;16.90;;
19291;SDS011;9779;51.756;7.450;2023-04-21T10:49:24;26.10;;;19.30;;
19291;SDS011;9779;51.756;7.450;2023-04-21T10:54:22;20.90;;;18.00;;
19291;SDS011;9779;51.756;7.450;2023-04-21T10:56:52;21.97;;;16.47;;
19291;SDS011;9779;51.756;7.450;2023-04-21T10:59:19;19.63;;;16.67;;
19291;SDS011;9779;51.756;7.450;2023-04-21T11:01:45;20.33;;;16.40;;
19291;SDS011;9779;51.756;7.450;2023-04-21T11:04:14;20.00;;;17.03;;
19291;SDS011;9779;51.756;7.450;2023-04-21T11:06:41;20.07;;;17.13;;
19291;SDS011;9779;51.756;7.450;2023-04-21T11:09:07;21.20;;;16.67;;
19291;SDS011;9779;51.756;7.450;2023-04-21T11:11:33;19.23;;;17.13;;
19291;SDS011;9779;51.756;7.450;2023-04-21T11:14:00;19.97;;;16.97;;
19291;SDS011;9779;51.756;7.450;2023-04-21T11:16:26;20.70;;;17.30;;
19291;SDS011;9779;51.756;7.450;2023-04-21T11:18:52;20.43;;;15.90;;
19291;SDS011;9779;51.756;7.450;2023-04-21T11:21:20;19.20;;;17.10;;
19291;SDS011;9779;51.756;7.450;2023-04-21T11:23:47;21.57;;;17.27;;
19291;SDS011;9779;51.756;7.450;2023-04-21T11:26:13;20.13;;;16.73;;
19291;SDS011;9779;51.756;7.450;2023-04-21T11:28:39;19.77;;;15.33;;
19291;SDS011;9779;51.756;7.450;2023-04-21T11:31:06;18.67;;;16.63;;
19291;SDS011;9779;51.756;7.450;2023-04-21T11:33:35;29.87;;;19.10;;
19291;SDS011;9779;51.756;7.450;2023-04-21T11:36:03;19.27;;;15.60;;
19291;SDS011;9779;51.756;7.450;2023-04-21T11:39:03;17.90;;;16.00;;
19291;SDS011;9779;51.756;7.450;2023-04-21T11:41:22;20.37;;;15.70;;
19291;SDS011;9779;51.756;7.450;2023-04-21T11:43:49;23.43;;;16.47;;
19291;SDS011;9779;51.756;7.450;2023-04-21T11:46:23;21.30;;;16.53;;
19291;SDS011;9779;51.756;7.450;2023-04-21T11:48:59;20.60;;;15.60;;
19291;SDS011;9779;51.756;7.450;2023-04-21T11:51:33;20.50;;;15.83;;
19291;SDS011;9779;51.756;7.450;2023-04-21T11:54:00;21.87;;;16.13;;
19291;SDS011;9779;51.756;7.450;2023-04-21T11:56:26;28.70;;;18.83;;
19291;SDS011;9779;51.756;7.450;2023-04-21T11:58:52;21.17;;;16.27;;
19291;SDS011;9779;51.756;7.450;2023-04-21T12:01:17;17.67;;;15.87;;
19291;SDS011;9779;51.756;7.450;2023-04-21T12:03:51;16.20;;;14.60;;
19291;SDS011;9779;51.756;7.450;2023-04-21T12:06:24;21.63;;;16.20;;
19291;SDS011;9779;51.756;7.450;2023-04-21T12:09:02;16.30;;;14.60;;
19291;SDS011;9779;51.756;7.450;2023-04-21T12:11:28;19.13;;;15.97;;
19291;SDS011;9779;51.756;7.450;2023-04-21T12:13:55;24.00;;;16.80;;
19291;SDS011;9779;51.756;7.450;2023-04-21T12:16:23;19.30;;;15.33;;
19291;SDS011;9779;51.756;7.450;2023-04-21T12:18:52;21.77;;;16.33;;
19291;SDS011;9779;51.756;7.450;2023-04-21T12:21:19;16.73;;;14.67;;
19291;SDS011;9779;51.756;7.450;2023-04-21T12:23:44;15.57;;;14.00;;
19291;SDS011;9779;51.756;7.450;2023-04-21T12:26:10;20.03;;;13.90;;
19291;SDS011;9779;51.756;7.450;2023-04-21T12:28:36;15.70;;;13.83;;
19291;SDS011;9779;51.756;7.450;2023-04-21T12:31:03;15.60;;;14.13;;
19291;SDS011;9779;51.756;7.450;2023-04-21T12:33:29;15.67;;;14.03;;
19291;SDS011;9779;51.756;7.450;2023-04-21T12:35:55;15.77;;;14.10;;
19291;SDS011;9779;51.756;7.450;2023-04-21T12:38:20;21.33;;;14.13;;
19291;SDS011;9779;51.756;7.450;2023-04-21T12:40:47;19.63;;;13.50;;
19291;SDS011;9779;51.756;7.450;2023-04-21T12:43:12;15.97;;;14.27;;
19291;SDS011;9779;51.756;7.450;2023-04-21T12:45:38;15.37;;;13.87;;
19291;SDS011;9779;51.756;7.450;2023-04-21T12:48:04;16.57;;;14.83;;
19291;SDS011;9779;51.756;7.450;2023-04-21T12:50:30;15.60;;;14.20;;
19291;SDS011;9779;51.756;7.450;2023-04-21T12:52:56;14.50;;;13.10;;
19291;SDS011;9779;51.756;7.450;2023-04-21T12:55:21;15.83;;;14.07;;
19291;SDS011;9779;51.756;7.450;2023-04-21T12:57:47;16.63;;;14.60;;
19291;SDS011;9779;51.756;7.450;2023-04-21T13:00:14;16.23;;;13.60;;
19291;SDS011;9779;51.756;7.450;2023-04-21T13:02:40;15.87;;;13.80;;
19291;SDS011;9779;51.756;7.450;2023-04-21T13:05:06;13.50;;;12.27;;
19291;SDS011;9779;51.756;7.450;2023-04-21T13:07:33;14.03;;;12.83;;
19291;SDS011;9779;51.756;7.450;2023-04-21T13:09:59;15.53;;;12.87;;
19291;SDS011;9779;51.756;7.450;2023-04-21T13:12:26;17.10;;;14.83;;
19291;SDS011;9779;51.756;7.450;2023-04-21T13:14:52;16.77;;;14.77;;
19291;SDS011;9779;51.756;7.450;2023-04-21T13:17:18;14.87;;;12.97;;
19291;SDS011;9779;51.756;7.450;2023-04-21T13:19:43;13.90;;;12.57;;
19291;SDS011;9779;51.756;7.450;2023-04-21T13:22:09;13.27;;;11.93;;
19291;SDS011;9779;51.756;7.450;2023-04-21T13:24:34;15.80;;;12.70;;
19291;SDS011;9779;51.756;7.450;2023-04-21T13:27:00;13.77;;;12.07;;
19291;SDS011;9779;51.756;7.450;2023-04-21T13:29:26;14.93;;;13.47;;
19291;SDS011;9779;51.756;7.450;2023-04-21T13:31:54;17.63;;;13.30;;
19291;SDS011;9779;51.756;7.450;2023-04-21T13:34:20;13.83;;;12.00;;
19291;SDS011;9779;51.756;7.450;2023-04-21T13:36:46;16.33;;;13.67;;
19291;SDS011;9779;51.756;7.450;2023-04-21T13:39:12;15.00;;;12.87;;
19291;SDS011;9779;51.756;7.450;2023-04-21T13:41:38;14.13;;;12.93;;
19291;SDS011;9779;51.756;7.450;2023-04-21T13:44:04;14.27;;;12.97;;
19291;SDS011;9779;51.756;7.450;2023-04-21T13:46:30;14.83;;;13.33;;
19291;SDS011;9779;51.756;7.450;2023-04-21T13:48:55;20.37;;;14.10;;
19291;SDS011;9779;51.756;7.450;2023-04-21T13:51:21;15.70;;;14.07;;
19291;SDS011;9779;51.756;7.450;2023-04-21T13:53:47;14.97;;;13.43;;
19291;SDS011;9779;51.756;7.450;2023-04-21T13:56:13;17.97;;;13.10;;
19291;SDS011;9779;51.756;7.450;2023-04-21T13:58:38;15.57;;;14.00;;
19291;SDS011;9779;51.756;7.450;2023-04-21T14:01:05;19.30;;;13.87;;
19291;SDS011;9779;51.756;7.450;2023-04-21T14:03:30;14.77;;;13.37;;
19291;SDS011;9779;51.756;7.450;2023-04-21T14:05:56;18.63;;;13.80;;
19291;SDS011;9779;51.756;7.450;2023-04-21T14:08:22;19.13;;;13.37;;
19291;SDS011;9779;51.756;7.450;2023-04-21T14:10:48;14.60;;;13.13;;
19291;SDS011;9779;51.756;7.450;2023-04-21T14:13:13;18.80;;;13.33;;
19291;SDS011;9779;51.756;7.450;2023-04-21T14:15:39;16.90;;;13.47;;
19291;SDS011;9779;51.756;7.450;2023-04-21T14:18:04;13.47;;;12.07;;
19291;SDS011;9779;51.756;7.450;2023-04-21T14:20:30;15.00;;;13.43;;
19291;SDS011;9779;51.756;7.450;2023-04-21T14:22:55;15.47;;;13.67;;
19291;SDS011;9779;51.756;7.450;2023-04-21T14:25:21;14.97;;;13.37;;
19291;SDS011;9779;51.756;7.450;2023-04-21T14:27:46;15.93;;;14.10;;
19291;SDS011;9779;51.756;7.450;2023-04-21T14:30:12;15.00;;;13.60;;
19291;SDS011;9779;51.756;7.450;2023-04-21T14:32:38;15.07;;;13.57;;
19291;SDS011;9779;51.756;7.450;2023-04-21T14:35:09;21.20;;;12.77;;
19291;SDS011;9779;51.756;7.450;2023-04-21T14:37:36;14.60;;;12.60;;
19291;SDS011;9779;51.756;7.450;2023-04-21T14:40:02;14.70;;;13.30;;